Time;durP1;ratioP1;P1;durP2;ratioP2;P2;SDS_P1;SDS_P2;PMS_P1;PMS_P2;Temp;Humidity;BMP_temperature;BMP_pressure;BME280_temperature;BME280_humidity;BME280_pressure;Samples;Min_cycle;Max_cycle;Signal;HPM_P1;HPM_P2
2021/12/25 00:01:47;;;;;;;;;;;;;;;;;;5113288;28;19964;-87
2021/12/25 00:04:13;;;;;;;;;;;;;;;;;;5115359;28;20001;-87
2021/12/25 00:06:40;;;;;;;;;;;;;;;;;;5114425;28;20045;-87
2021/12/25 00:09:07;;;;;;;;;;;;;;;;;;5114838;28;20071;-87
2021/12/25 00:11:35;;;;;;;;;;;;;;;;;;5115054;28;20046;-87
2021/12/25 00:14:09;;;;;;;;;;;;;;;;;;5114892;28;19969;-87
2021/12/25 00:16:36;;;;;;;;;;;;;;;;;;5114752;28;19963;-87
2021/12/25 00:19:03;;;;;;;;;;;;;;;;;;5114869;28;20014;-87
2021/12/25 00:21:30;;;;;;;;;;;;;;;;;;5115069;28;20056;-87
2021/12/25 00:23:57;;;;;;;;;;;;;;;;;;5114538;28;20054;-87
2021/12/25 00:29:30;;;;;;;;;;;;;;;;;;5114569;28;20432;-87
2021/12/25 00:32:11;;;;;;;;;;;;;;;;;;5114496;28;19960;-87
2021/12/25 00:34:38;;;;;;;;;;;;;;;;;;5114490;28;20052;-87
2021/12/25 00:37:05;;;;;;;;;;;;;;;;;;5113954;28;20004;-86
2021/12/25 00:39:32;;;;;;;;;;;;;;;;;;5114441;28;20388;-87
2021/12/25 00:41:59;;;;;;;;;;;;;;;;;;5114605;28;20030;-86
2021/12/25 00:44:26;;;;;;;;;;;;;;;;;;5114309;28;20409;-88
2021/12/25 00:46:54;;;;;;;;;;;;;;;;;;5114382;28;20060;-87
2021/12/25 00:49:21;;;;;;;;;;;;;;;;;;5114167;28;19973;-87
2021/12/25 00:51:48;;;;;;;;;;;;;;;;;;5114486;28;20484;-86
2021/12/25 00:54:15;;;;;;;;;;;;;;;;;;5114564;28;20045;-87
2021/12/25 00:56:42;;;;;;;;;;;;;;;;;;5114303;28;20048;-88
2021/12/25 00:59:09;;;;;;;;;;;;;;;;;;5114040;28;20054;-87
2021/12/25 01:01:36;;;;;;;;;;;;;;;;;;5114165;28;19958;-88
2021/12/25 01:04:03;;;;;;;;;;;;;;;;;;5113730;28;20021;-87
2021/12/25 01:06:30;;;;;;;;;;;;;;;;;;5114307;28;20406;-86
2021/12/25 01:08:57;;;;;;;;;;;;;;;;;;5114159;28;19967;-87
2021/12/25 01:11:26;;;;;;;;;;;;;;;;;;5113849;28;20053;-87
2021/12/25 01:13:59;;;;;;;;;;;;;;;;;;5114016;28;19964;-88
2021/12/25 01:16:53;;;;;;;;;;;;;;;;;;5113878;28;19975;-87
2021/12/25 01:25:03;;;;;;;;;;;;;;;;;;5110766;28;19965;-88
2021/12/25 01:30:18;;;;;;;;;;;;;;;;;;5114110;28;19972;-87
2021/12/25 01:33:25;;;;;;;;;;;;;;;;;;5115997;28;20007;-87
2021/12/25 01:36:27;;;;;;;;;;;;;;;;;;5115570;28;19961;-88
2021/12/25 01:39:03;;;;;;;;;;;;;;;;;;5113883;28;20031;-88
2021/12/25 01:41:57;;;;;;;;;;;;;;;;;;5114099;28;19962;-87
2021/12/25 01:49:53;;;;;;;;;;;;;;;;;;5114972;28;20023;-87
2021/12/25 01:52:26;;;;;;;;;;;;;;;;;;5117854;28;20017;-88
2021/12/25 01:54:53;;;;;;;;;;;;;;;;;;5117326;28;20297;-88
2021/12/25 01:57:20;;;;;;;;;;;;;;;;;;5117692;28;20003;-88
2021/12/25 01:59:47;;;;;;;;;;;;;;;;;;5117027;28;20053;-88
2021/12/25 02:02:14;;;;;;;;;;;;;;;;;;5117912;28;20371;-87
2021/12/25 02:04:41;;;;;;;;;;;;;;;;;;5116946;28;19958;-87
2021/12/25 02:07:08;;;;;;;;;;;;;;;;;;5117485;28;20016;-88
2021/12/25 02:09:35;;;;;;;;;;;;;;;;;;5116907;28;20073;-87
2021/12/25 02:12:02;;;;;;;;;;;;;;;;;;5117118;28;20046;-88
2021/12/25 02:14:30;;;;;;;;;;;;;;;;;;5116970;28;20009;-88
2021/12/25 02:17:03;;;;;;;;;;;;;;;;;;5117152;28;20424;-88
2021/12/25 02:19:39;;;;;;;;;;;;;;;;;;5117013;28;20386;-88
2021/12/25 02:22:08;;;;;;;;;;;;;;;;;;5117200;28;19960;-88
2021/12/25 02:24:36;;;;;;;;;;;;;;;;;;5117086;28;20006;-88
2021/12/25 02:27:03;;;;;;;;;;;;;;;;;;5117105;28;19964;-87
2021/12/25 02:29:30;;;;;;;;;;;;;;;;;;5117123;28;19975;-88
2021/12/25 02:31:57;;;;;;;;;;;;;;;;;;5117105;28;19959;-87
2021/12/25 02:34:24;;;;;;;;;;;;;;;;;;5116488;28;20054;-87
2021/12/25 02:36:51;;;;;;;;;;;;;;;;;;5116743;28;20373;-87
2021/12/25 02:39:18;;;;;;;;;;;;;;;;;;5116846;28;20044;-86
2021/12/25 02:41:45;;;;;;;;;;;;;;;;;;5116596;28;20040;-87
2021/12/25 02:44:12;;;;;;;;;;;;;;;;;;5116817;28;20041;-87
2021/12/25 02:46:39;;;;;;;;;;;;;;;;;;5116764;28;20410;-87
2021/12/25 02:49:06;;;;;;;;;;;;;;;;;;5116787;28;20007;-87
2021/12/25 02:51:33;;;;;;;;;;;;;;;;;;5116518;28;20060;-87
2021/12/25 02:54:00;;;;;;;;;;;;;;;;;;5116385;28;20065;-87
2021/12/25 02:56:27;;;;;;;;;;;;;;;;;;5116449;28;20052;-87
2021/12/25 02:58:54;;;;;;;;;;;;;;;;;;5116680;28;20003;-87
2021/12/25 03:01:21;;;;;;;;;;;;;;;;;;5116259;28;20063;-87
2021/12/25 03:03:48;;;;;;;;;;;;;;;;;;5116188;28;20407;-88
2021/12/25 03:06:15;;;;;;;;;;;;;;;;;;5116326;28;20071;-87
2021/12/25 03:08:41;;;;;;;;;;;;;;;;;;5116117;28;20053;-87
2021/12/25 03:11:09;;;;;;;;;;;;;;;;;;5116363;28;20076;-87
2021/12/25 03:13:42;;;;;;;;;;;;;;;;;;5116054;28;20351;-87
2021/12/25 03:16:10;;;;;;;;;;;;;;;;;;5116370;28;19957;-87
2021/12/25 03:18:41;;;;;;;;;;;;;;;;;;5116370;28;19971;-87
2021/12/25 03:21:08;;;;;;;;;;;;;;;;;;5116510;28;20391;-87
2021/12/25 03:23:36;;;;;;;;;;;;;;;;;;5116302;28;20032;-87
2021/12/25 03:26:03;;;;;;;;;;;;;;;;;;5116541;28;19986;-87
2021/12/25 03:28:32;;;;;;;;;;;;;;;;;;5115444;28;20456;-87
2021/12/25 03:31:01;;;;;;;;;;;;;;;;;;5115949;28;19976;-87
2021/12/25 03:33:28;;;;;;;;;;;;;;;;;;5115892;28;19963;-87
2021/12/25 03:35:55;;;;;;;;;;;;;;;;;;5115876;28;20361;-87
2021/12/25 03:38:22;;;;;;;;;;;;;;;;;;5116068;28;20055;-88
2021/12/25 03:40:49;;;;;;;;;;;;;;;;;;5116091;28;20053;-87
2021/12/25 03:43:16;;;;;;;;;;;;;;;;;;5115453;28;20490;-86
2021/12/25 03:45:43;;;;;;;;;;;;;;;;;;5115813;28;20385;-88
2021/12/25 03:48:14;;;;;;;;;;;;;;;;;;5115653;28;20044;-90
2021/12/25 03:53:38;;;;;;;;;;;;;;;;;;5115663;28;19954;-87
2021/12/25 03:58:50;;;;;;;;;;;;;;;;;;5115458;28;19952;-89
2021/12/25 04:01:28;;;;;;;;;;;;;;;;;;5115156;28;20453;-87
2021/12/25 04:04:06;;;;;;;;;;;;;;;;;;5115306;28;19952;-88
2021/12/25 04:06:33;;;;;;;;;;;;;;;;;;5114939;28;20012;-88
2021/12/25 04:09:03;;;;;;;;;;;;;;;;;;5115143;28;20349;-89
2021/12/25 04:11:33;;;;;;;;;;;;;;;;;;5115139;28;19991;-86
2021/12/25 04:14:00;;;;;;;;;;;;;;;;;;5114551;28;19964;-88
2021/12/25 04:16:27;;;;;;;;;;;;;;;;;;5115165;28;20468;-88
2021/12/25 04:18:54;;;;;;;;;;;;;;;;;;5115191;28;20075;-87
2021/12/25 04:21:23;;;;;;;;;;;;;;;;;;5114999;28;20010;-88
2021/12/25 04:23:50;;;;;;;;;;;;;;;;;;5114688;28;20083;-87
2021/12/25 04:26:17;;;;;;;;;;;;;;;;;;5114702;28;20371;-87
2021/12/25 04:28:48;;;;;;;;;;;;;;;;;;5114941;28;20010;-88
2021/12/25 04:31:32;;;;;;;;;;;;;;;;;;5115607;28;20030;-87
2021/12/25 04:48:42;;;;;;;;;;;;;;;;;;5114561;28;19950;-87
2021/12/25 05:01:54;;;;;;;;;;;;;;;;;;5116048;28;20065;-87
2021/12/25 05:04:25;;;;;;;;;;;;;;;;;;5114923;28;20063;-87
2021/12/25 05:06:52;;;;;;;;;;;;;;;;;;5114268;28;19984;-86
2021/12/25 05:09:19;;;;;;;;;;;;;;;;;;5114269;28;20057;-87
2021/12/25 05:11:46;;;;;;;;;;;;;;;;;;5113776;28;20448;-88
2021/12/25 05:14:13;;;;;;;;;;;;;;;;;;5115262;28;19959;-87
2021/12/25 05:16:40;;;;;;;;;;;;;;;;;;5114866;28;20047;-86
2021/12/25 05:19:07;;;;;;;;;;;;;;;;;;5114462;28;19967;-87
2021/12/25 05:21:34;;;;;;;;;;;;;;;;;;5114439;28;19963;-87
2021/12/25 05:24:01;;;;;;;;;;;;;;;;;;5114850;28;19969;-87
2021/12/25 05:26:28;;;;;;;;;;;;;;;;;;5120692;28;19995;-87
2021/12/25 05:28:59;;;;;;;;;;;;;;;;;;5119270;28;20024;-86
2021/12/25 05:31:26;;;;;;;;;;;;;;;;;;5118501;28;19967;-87
2021/12/25 05:33:53;;;;;;;;;;;;;;;;;;5118346;28;20061;-87
2021/12/25 05:36:20;;;;;;;;;;;;;;;;;;5117849;28;20040;-87
2021/12/25 05:38:47;;;;;;;;;;;;;;;;;;5118087;28;20481;-87
2021/12/25 05:41:14;;;;;;;;;;;;;;;;;;5117910;28;19966;-87
2021/12/25 05:43:41;;;;;;;;;;;;;;;;;;5118063;28;19987;-87
2021/12/25 05:46:08;;;;;;;;;;;;;;;;;;5117465;28;20034;-87
2021/12/25 05:48:36;;;;;;;;;;;;;;;;;;5118027;28;20334;-88
2021/12/25 05:51:03;;;;;;;;;;;;;;;;;;5117761;28;20318;-87
2021/12/25 05:53:30;;;;;;;;;;;;;;;;;;5117726;28;19962;-86
2021/12/25 05:55:57;;;;;;;;;;;;;;;;;;5117815;28;20053;-87
2021/12/25 05:58:24;;;;;;;;;;;;;;;;;;5117684;28;20133;-87
2021/12/25 06:00:51;;;;;;;;;;;;;;;;;;5117860;28;20045;-87
2021/12/25 06:03:18;;;;;;;;;;;;;;;;;;5117778;28;20062;-88
2021/12/25 06:05:45;;;;;;;;;;;;;;;;;;5118070;28;20035;-87
2021/12/25 06:08:12;;;;;;;;;;;;;;;;;;5117797;28;20022;-87
2021/12/25 06:10:39;;;;;;;;;;;;;;;;;;5097213;28;19975;-88
2021/12/25 06:13:06;;;;;;;;;;;;;;;;;;5097258;28;20076;-86
2021/12/25 06:15:33;;;;;;;;;;;;;;;;;;5116549;28;20316;-87
2021/12/25 06:18:00;;;;;;;;;;;;;;;;;;5117669;28;20050;-87
2021/12/25 06:20:27;;;;;;;;;;;;;;;;;;5117187;28;20045;-88
2021/12/25 06:22:54;;;;;;;;;;;;;;;;;;5117378;28;20044;-87
2021/12/25 06:25:21;;;;;;;;;;;;;;;;;;5117231;28;20055;-88
2021/12/25 06:27:48;;;;;;;;;;;;;;;;;;5117964;28;20044;-87
2021/12/25 06:30:15;;;;;;;;;;;;;;;;;;5118120;28;20030;-87
2021/12/25 06:32:42;;;;;;;;;;;;;;;;;;5123317;28;19995;-87
2021/12/25 06:35:09;;;;;;;;;;;;;;;;;;5118797;28;20390;-87
2021/12/25 06:37:36;;;;;;;;;;;;;;;;;;5117905;28;20058;-88
2021/12/25 06:40:03;;;;;;;;;;;;;;;;;;5119053;28;20017;-87
2021/12/25 06:42:30;;;;;;;;;;;;;;;;;;5120104;28;20004;-87
2021/12/25 06:44:57;;;;;;;;;;;;;;;;;;5119865;28;20628;-87
2021/12/25 06:47:24;;;;;;;;;;;;;;;;;;5118821;28;19966;-87
2021/12/25 06:49:51;;;;;;;;;;;;;;;;;;5118026;28;20041;-87
2021/12/25 06:52:18;;;;;;;;;;;;;;;;;;5117109;28;20449;-87
2021/12/25 06:54:45;;;;;;;;;;;;;;;;;;5119368;28;20008;-87
2021/12/25 06:57:12;;;;;;;;;;;;;;;;;;5133327;27;19966;-86
2021/12/25 06:59:39;;;;;;;;;;;;;;;;;;5118191;28;19959;-88
2021/12/25 07:02:06;;;;;;;;;;;;;;;;;;5117734;28;19957;-87
2021/12/25 07:04:33;;;;;;;;;;;;;;;;;;5117029;28;19997;-87
2021/12/25 07:07:00;;;;;;;;;;;;;;;;;;5116980;28;20473;-88
2021/12/25 07:09:27;;;;;;;;;;;;;;;;;;5117124;28;19956;-87
2021/12/25 07:11:54;;;;;;;;;;;;;;;;;;5116415;28;20057;-87
2021/12/25 07:14:21;;;;;;;;;;;;;;;;;;5116593;28;19982;-86
2021/12/25 07:16:48;;;;;;;;;;;;;;;;;;5116283;28;20382;-87
2021/12/25 07:19:16;;;;;;;;;;;;;;;;;;5116704;28;19994;-87
2021/12/25 07:21:43;;;;;;;;;;;;;;;;;;5116688;28;20404;-87
2021/12/25 07:24:11;;;;;;;;;;;;;;;;;;5117153;28;20063;-86
2021/12/25 07:26:38;;;;;;;;;;;;;;;;;;5116619;28;20056;-87
2021/12/25 07:29:05;;;;;;;;;;;;;;;;;;5116624;28;19964;-88
2021/12/25 07:31:32;;;;;;;;;;;;;;;;;;5116598;28;20075;-88
2021/12/25 07:33:59;;;;;;;;;;;;;;;;;;5118948;28;20019;-87
2021/12/25 07:36:26;;;;;;;;;;;;;;;;;;5116750;28;20362;-87
2021/12/25 07:38:55;;;;;;;;;;;;;;;;;;5117434;28;20048;-88
2021/12/25 07:41:22;;;;;;;;;;;;;;;;;;5116366;28;19969;-88
2021/12/25 07:43:49;;;;;;;;;;;;;;;;;;5117233;28;19967;-88
2021/12/25 07:46:16;;;;;;;;;;;;;;;;;;5118477;28;19993;-87
2021/12/25 07:48:44;;;;;;;;;;;;;;;;;;5099269;28;19967;-88
2021/12/25 07:51:11;;;;;;;;;;;;;;;;;;5117073;28;19967;-90
2021/12/25 07:53:38;;;;;;;;;;;;;;;;;;5117508;28;20044;-89
2021/12/25 07:56:05;;;;;;;;;;;;;;;;;;5119532;28;20037;-88
2021/12/25 07:58:32;;;;;;;;;;;;;;;;;;5099827;28;19963;-88
2021/12/25 08:00:59;;;;;;;;;;;;;;;;;;5118146;28;20018;-88
2021/12/25 08:03:26;;;;;;;;;;;;;;;;;;5120442;28;19960;-88
2021/12/25 08:05:53;;;;;;;;;;;;;;;;;;5116700;28;20013;-88
2021/12/25 08:08:20;;;;;;;;;;;;;;;;;;5116610;28;19977;-88
2021/12/25 08:10:47;;;;;;;;;;;;;;;;;;5115540;28;19979;-88
2021/12/25 08:13:16;;;;;;;;;;;;;;;;;;5115902;28;20515;-89
2021/12/25 08:15:43;;;;;;;;;;;;;;;;;;5120064;28;20019;-88
2021/12/25 08:18:10;;;;;;;;;;;;;;;;;;5116340;28;20030;-87
2021/12/25 08:20:37;;;;;;;;;;;;;;;;;;5116205;28;20054;-86
2021/12/25 08:23:04;;;;;;;;;;;;;;;;;;5117558;28;19965;-88
2021/12/25 08:25:31;;;;;;;;;;;;;;;;;;5122176;28;20006;-88
2021/12/25 08:27:58;;;;;;;;;;;;;;;;;;5119746;28;19993;-88
2021/12/25 08:30:27;;;;;;;;;;;;;;;;;;5115693;28;20054;-87
2021/12/25 08:32:55;;;;;;;;;;;;;;;;;;5114569;28;19962;-86
2021/12/25 08:35:22;;;;;;;;;;;;;;;;;;5116086;28;20059;-87
2021/12/25 08:37:49;;;;;;;;;;;;;;;;;;5116028;28;19961;-87
2021/12/25 08:40:16;;;;;;;;;;;;;;;;;;5117381;28;19963;-87
2021/12/25 08:42:47;;;;;;;;;;;;;;;;;;5115301;28;20455;-87
2021/12/25 08:45:38;;;;;;;;;;;;;;;;;;5116102;28;20325;-87
2021/12/25 08:48:08;;;;;;;;;;;;;;;;;;5117576;28;20015;-87
2021/12/25 08:50:35;;;;;;;;;;;;;;;;;;5115179;28;19956;-88
2021/12/25 08:53:02;;;;;;;;;;;;;;;;;;5115049;28;20053;-86
2021/12/25 08:55:29;;;;;;;;;;;;;;;;;;5115434;28;20066;-87
2021/12/25 08:57:56;;;;;;;;;;;;;;;;;;5115329;28;19964;-88
2021/12/25 09:00:23;;;;;;;;;;;;;;;;;;5115715;28;19985;-86
2021/12/25 09:02:51;;;;;;;;;;;;;;;;;;5119033;28;19960;-87
2021/12/25 09:05:18;;;;;;;;;;;;;;;;;;5118426;28;19958;-87
2021/12/25 09:07:50;;;;;;;;;;;;;;;;;;5117667;28;20001;-89
2021/12/25 09:10:17;;;;;;;;;;;;;;;;;;5116706;28;20371;-87
2021/12/25 09:12:45;;;;;;;;;;;;;;;;;;5117103;28;20028;-87
2021/12/25 09:15:12;;;;;;;;;;;;;;;;;;5116448;28;19971;-87
2021/12/25 09:17:39;;;;;;;;;;;;;;;;;;5115433;28;20137;-88
2021/12/25 09:20:06;;;;;;;;;;;;;;;;;;5116303;28;20483;-88
2021/12/25 09:22:33;;;;;;;;;;;;;;;;;;5117496;28;20056;-87
2021/12/25 09:25:00;;;;;;;;;;;;;;;;;;5122227;28;19963;-90
2021/12/25 09:27:27;;;;;;;;;;;;;;;;;;5119004;28;20483;-88
2021/12/25 09:29:54;;;;;;;;;;;;;;;;;;5117582;28;20032;-87
2021/12/25 09:32:21;;;;;;;;;;;;;;;;;;5117209;28;20158;-87
2021/12/25 09:34:48;;;;;;;;;;;;;;;;;;5117497;28;20058;-88
2021/12/25 09:37:15;;;;;;;;;;;;;;;;;;5116592;28;20051;-87
2021/12/25 09:39:42;;;;;;;;;;;;;;;;;;5115359;28;19964;-87
2021/12/25 09:42:09;;;;;;;;;;;;;;;;;;5117267;28;20394;-88
2021/12/25 09:44:37;;;;;;;;;;;;;;;;;;5116103;28;19963;-88
2021/12/25 09:47:04;;;;;;;;;;;;;;;;;;5115904;28;20369;-88
2021/12/25 09:49:31;;;;;;;;;;;;;;;;;;5115509;28;20010;-87
2021/12/25 09:51:57;;;;;;;;;;;;;;;;;;5116440;28;20064;-87
2021/12/25 09:54:24;;;;;;;;;;;;;;;;;;5114941;28;20053;-87
2021/12/25 09:56:56;;;;;;;;;;;;;;;;;;5114670;28;20016;-86
2021/12/25 09:59:23;;;;;;;;;;;;;;;;;;5115679;28;20407;-88
2021/12/25 10:01:50;;;;;;;;;;;;;;;;;;5116367;28;20012;-87
2021/12/25 10:04:17;;;;;;;;;;;;;;;;;;5117961;28;19972;-88
2021/12/25 10:06:44;;;;;;;;;;;;;;;;;;5117285;28;20005;-87
2021/12/25 10:09:11;;;;;;;;;;;;;;;;;;5122816;28;20373;-87
2021/12/25 10:11:38;;;;;;;;;;;;;;;;;;5122553;28;20040;-86
2021/12/25 10:14:05;;;;;;;;;;;;;;;;;;5118630;28;20019;-87
2021/12/25 10:16:32;;;;;;;;;;;;;;;;;;5118917;28;20234;-87
2021/12/25 10:18:59;;;;;;;;;;;;;;;;;;5118880;28;20008;-87
2021/12/25 10:21:26;;;;;;;;;;;;;;;;;;5117920;28;20008;-87
2021/12/25 10:23:53;;;;;;;;;;;;;;;;;;5117641;28;19978;-86
2021/12/25 10:26:20;;;;;;;;;;;;;;;;;;5119024;28;20480;-87
2021/12/25 10:28:47;;;;;;;;;;;;;;;;;;5120485;28;19964;-87
2021/12/25 10:31:16;;;;;;;;;;;;;;;;;;5118012;28;20014;-86
2021/12/25 10:33:44;;;;;;;;;;;;;;;;;;5117083;28;19969;-86
2021/12/25 10:36:11;;;;;;;;;;;;;;;;;;5118798;28;20005;-87
2021/12/25 10:38:38;;;;;;;;;;;;;;;;;;5121604;28;19966;-86
2021/12/25 10:41:05;;;;;;;;;;;;;;;;;;5118376;28;19967;-87
2021/12/25 10:43:35;;;;;;;;;;;;;;;;;;5117519;28;20042;-87
2021/12/25 10:46:02;;;;;;;;;;;;;;;;;;5117942;28;19992;-86
2021/12/25 10:48:29;;;;;;;;;;;;;;;;;;5117051;28;20063;-88
2021/12/25 10:50:56;;;;;;;;;;;;;;;;;;5116774;28;19962;-87
2021/12/25 10:53:23;;;;;;;;;;;;;;;;;;5116951;28;20406;-87
2021/12/25 10:55:50;;;;;;;;;;;;;;;;;;5117509;28;20046;-87
2021/12/25 10:58:17;;;;;;;;;;;;;;;;;;5117245;28;20070;-88
2021/12/25 11:00:44;;;;;;;;;;;;;;;;;;5116866;28;20077;-87
2021/12/25 11:03:11;;;;;;;;;;;;;;;;;;5116960;28;20157;-87
2021/12/25 11:05:38;;;;;;;;;;;;;;;;;;5117291;28;20080;-87
2021/12/25 11:08:06;;;;;;;;;;;;;;;;;;5116640;28;19975;-88
2021/12/25 11:10:33;;;;;;;;;;;;;;;;;;5116365;28;20382;-87
2021/12/25 11:13:00;;;;;;;;;;;;;;;;;;5117239;28;20067;-85
2021/12/25 11:15:27;;;;;;;;;;;;;;;;;;5117555;28;20057;-87
2021/12/25 11:18:04;;;;;;;;;;;;;;;;;;5116405;28;19969;-87
2021/12/25 11:20:31;;;;;;;;;;;;;;;;;;5116079;28;19966;-87
2021/12/25 11:22:58;;;;;;;;;;;;;;;;;;5116137;28;20399;-87
2021/12/25 11:25:26;;;;;;;;;;;;;;;;;;5116479;28;20057;-86
2021/12/25 11:27:53;;;;;;;;;;;;;;;;;;5116354;28;19960;-87
2021/12/25 11:30:20;;;;;;;;;;;;;;;;;;5116444;28;20051;-87
2021/12/25 11:32:47;;;;;;;;;;;;;;;;;;5115754;28;20453;-87
2021/12/25 11:35:15;;;;;;;;;;;;;;;;;;5116248;28;20050;-86
2021/12/25 11:37:42;;;;;;;;;;;;;;;;;;5115936;28;19963;-86
2021/12/25 11:40:09;;;;;;;;;;;;;;;;;;5116062;28;20018;-86
2021/12/25 11:42:36;;;;;;;;;;;;;;;;;;5116216;28;20017;-87
2021/12/25 11:45:03;;;;;;;;;;;;;;;;;;5115722;28;20002;-87
2021/12/25 11:47:30;;;;;;;;;;;;;;;;;;5115670;28;20069;-87
2021/12/25 11:49:58;;;;;;;;;;;;;;;;;;5116256;28;20059;-87
2021/12/25 11:52:29;;;;;;;;;;;;;;;;;;5119023;27;19973;-87
2021/12/25 11:55:13;;;;;;;;;;;;;;;;;;5116429;28;19957;-86
2021/12/25 11:57:47;;;;;;;;;;;;;;;;;;5116620;28;19991;-86
2021/12/25 12:00:14;;;;;;;;;;;;;;;;;;5119288;28;19959;-89
2021/12/25 12:02:41;;;;;;;;;;;;;;;;;;5121213;28;20002;-86
2021/12/25 12:05:08;;;;;;;;;;;;;;;;;;5120941;28;19968;-86
2021/12/25 12:07:35;;;;;;;;;;;;;;;;;;5117972;28;20489;-86
2021/12/25 12:10:03;;;;;;;;;;;;;;;;;;5118120;28;20005;-85
2021/12/25 12:12:30;;;;;;;;;;;;;;;;;;5116648;28;19987;-85
2021/12/25 12:14:57;;;;;;;;;;;;;;;;;;5117053;28;19971;-85
2021/12/25 12:17:24;;;;;;;;;;;;;;;;;;5117061;28;20009;-86
2021/12/25 12:19:52;;;;;;;;;;;;;;;;;;5117619;28;19967;-86
2021/12/25 12:22:29;;;;;;;;;;;;;;;;;;5118402;28;20596;-86
2021/12/25 12:25:15;;;;;;;;;;;;;;;;;;5119551;28;19962;-86
2021/12/25 12:27:42;;;;;;;;;;;;;;;;;;5119566;28;19960;-86
2021/12/25 12:30:09;;;;;;;;;;;;;;;;;;5119989;28;20413;-86
2021/12/25 12:32:36;;;;;;;;;;;;;;;;;;5116865;28;20012;-86
2021/12/25 12:35:03;;;;;;;;;;;;;;;;;;5116884;28;20006;-86
2021/12/25 12:37:30;;;;;;;;;;;;;;;;;;5120593;28;20016;-86
2021/12/25 12:40:00;;;;;;;;;;;;;;;;;;5119457;28;20408;-87
2021/12/25 12:42:27;;;;;;;;;;;;;;;;;;5122030;28;19975;-87
2021/12/25 12:44:54;;;;;;;;;;;;;;;;;;5122164;28;19986;-86
2021/12/25 12:47:22;;;;;;;;;;;;;;;;;;5121972;28;19924;-86
2021/12/25 12:49:49;;;;;;;;;;;;;;;;;;5123328;28;19965;-86
2021/12/25 12:52:17;;;;;;;;;;;;;;;;;;5123998;28;19969;-86
2021/12/25 12:54:44;;;;;;;;;;;;;;;;;;5121253;28;19963;-86
2021/12/25 12:57:11;;;;;;;;;;;;;;;;;;5124531;28;19964;-87
2021/12/25 12:59:38;;;;;;;;;;;;;;;;;;5128811;28;20404;-87
2021/12/25 13:02:05;;;;;;;;;;;;;;;;;;5127320;28;19959;-86
2021/12/25 13:04:32;;;;;;;;;;;;;;;;;;5125068;28;19961;-86
2021/12/25 13:06:59;;;;;;;;;;;;;;;;;;5119739;28;20090;-86
2021/12/25 13:09:30;;;;;;;;;;;;;;;;;;5121687;28;19964;-86
2021/12/25 13:12:08;;;;;;;;;;;;;;;;;;5122427;28;19983;-87
2021/12/25 13:14:36;;;;;;;;;;;;;;;;;;5120728;28;19999;-86
2021/12/25 13:17:03;;;;;;;;;;;;;;;;;;5121129;28;19964;-86
2021/12/25 13:19:30;;;;;;;;;;;;;;;;;;5123588;28;19965;-86
2021/12/25 13:21:57;;;;;;;;;;;;;;;;;;5125148;28;19958;-86
2021/12/25 13:24:24;;;;;;;;;;;;;;;;;;5118474;28;19964;-86
2021/12/25 13:26:52;;;;;;;;;;;;;;;;;;5117725;28;19989;-86
2021/12/25 13:29:19;;;;;;;;;;;;;;;;;;5117836;28;20463;-86
2021/12/25 13:31:46;;;;;;;;;;;;;;;;;;5118988;28;20023;-87
2021/12/25 13:34:13;;;;;;;;;;;;;;;;;;5122012;28;19959;-86
2021/12/25 13:36:40;;;;;;;;;;;;;;;;;;5124560;28;19957;-87
2021/12/25 13:39:07;;;;;;;;;;;;;;;;;;5120869;28;20477;-86
2021/12/25 13:41:35;;;;;;;;;;;;;;;;;;5117185;28;20010;-86
2021/12/25 13:44:02;;;;;;;;;;;;;;;;;;5116758;28;19986;-86
2021/12/25 13:46:29;;;;;;;;;;;;;;;;;;5120763;28;19923;-86
2021/12/25 13:48:56;;;;;;;;;;;;;;;;;;5121283;28;20419;-86
2021/12/25 13:51:23;;;;;;;;;;;;;;;;;;5120844;28;19992;-85
2021/12/25 13:53:50;;;;;;;;;;;;;;;;;;5122543;28;20013;-85
2021/12/25 13:56:17;;;;;;;;;;;;;;;;;;5125465;28;19950;-85
2021/12/25 13:58:44;;;;;;;;;;;;;;;;;;5133040;28;19963;-86
2021/12/25 14:01:11;;;;;;;;;;;;;;;;;;5124999;28;20365;-85
2021/12/25 14:03:38;;;;;;;;;;;;;;;;;;5121705;28;20010;-86
2021/12/25 14:06:05;;;;;;;;;;;;;;;;;;5122223;28;19954;-86
2021/12/25 14:08:32;;;;;;;;;;;;;;;;;;5124905;28;19947;-85
2021/12/25 14:11:01;;;;;;;;;;;;;;;;;;5125938;28;19946;-86
2021/12/25 14:13:28;;;;;;;;;;;;;;;;;;5124827;28;19970;-86
2021/12/25 14:15:55;;;;;;;;;;;;;;;;;;5123245;28;19969;-86
2021/12/25 14:18:27;;;;;;;;;;;;;;;;;;5126359;28;19962;-86
2021/12/25 14:20:54;;;;;;;;;;;;;;;;;;5127883;28;19959;-87
2021/12/25 14:23:21;;;;;;;;;;;;;;;;;;5120939;28;19973;-86
2021/12/25 14:25:48;;;;;;;;;;;;;;;;;;5121153;28;19948;-85
2021/12/25 14:28:16;;;;;;;;;;;;;;;;;;5121847;28;19968;-86
2021/12/25 14:30:43;;;;;;;;;;;;;;;;;;5101118;28;20003;-86
2021/12/25 14:33:10;;;;;;;;;;;;;;;;;;5100336;28;20023;-86
2021/12/25 14:35:37;;;;;;;;;;;;;;;;;;5099157;28;19999;-86
2021/12/25 14:38:04;;;;;;;;;;;;;;;;;;5098082;28;19992;-86
2021/12/25 14:40:33;;;;;;;;;;;;;;;;;;5098213;28;20004;-86
2021/12/25 14:43:00;;;;;;;;;;;;;;;;;;5118283;28;20002;-86
2021/12/25 14:45:27;;;;;;;;;;;;;;;;;;5118751;28;20001;-87
2021/12/25 14:47:55;;;;;;;;;;;;;;;;;;5119188;28;20316;-87
2021/12/25 14:50:22;;;;;;;;;;;;;;;;;;5118814;28;20053;-86
2021/12/25 14:52:49;;;;;;;;;;;;;;;;;;5119041;28;20051;-86
2021/12/25 14:55:16;;;;;;;;;;;;;;;;;;5117181;28;20058;-86
2021/12/25 14:57:43;;;;;;;;;;;;;;;;;;5115747;28;20010;-86
2021/12/25 15:00:10;;;;;;;;;;;;;;;;;;5115717;28;19993;-86
2021/12/25 15:02:37;;;;;;;;;;;;;;;;;;5116314;28;20394;-86
2021/12/25 15:05:04;;;;;;;;;;;;;;;;;;5116169;28;20003;-85
2021/12/25 15:07:34;;;;;;;;;;;;;;;;;;5116084;28;20389;-86
2021/12/25 15:10:01;;;;;;;;;;;;;;;;;;5119236;28;19974;-86
2021/12/25 15:12:28;;;;;;;;;;;;;;;;;;5118765;28;20062;-86
2021/12/25 15:14:55;;;;;;;;;;;;;;;;;;5116104;28;19978;-85
2021/12/25 15:17:22;;;;;;;;;;;;;;;;;;5115986;28;20376;-84
2021/12/25 15:19:49;;;;;;;;;;;;;;;;;;5115748;28;20027;-87
2021/12/25 15:22:16;;;;;;;;;;;;;;;;;;5116402;28;20039;-87
2021/12/25 15:24:43;;;;;;;;;;;;;;;;;;5115804;28;20018;-84
2021/12/25 15:27:10;;;;;;;;;;;;;;;;;;5116168;28;20538;-88
2021/12/25 15:29:37;;;;;;;;;;;;;;;;;;5115662;28;20038;-86
2021/12/25 15:32:04;;;;;;;;;;;;;;;;;;5116182;28;20013;-86
2021/12/25 15:34:31;;;;;;;;;;;;;;;;;;5115732;28;20415;-87
2021/12/25 15:36:58;;;;;;;;;;;;;;;;;;5115934;28;20045;-86
2021/12/25 15:39:25;;;;;;;;;;;;;;;;;;5116051;28;20037;-84
2021/12/25 15:41:52;;;;;;;;;;;;;;;;;;5115360;28;19957;-87
2021/12/25 15:44:19;;;;;;;;;;;;;;;;;;5115721;28;20086;-87
2021/12/25 15:46:46;;;;;;;;;;;;;;;;;;5115514;28;20047;-86
2021/12/25 15:49:14;;;;;;;;;;;;;;;;;;5115683;28;20040;-87
2021/12/25 15:51:41;;;;;;;;;;;;;;;;;;5115117;28;19944;-85
2021/12/25 15:54:08;;;;;;;;;;;;;;;;;;5115086;28;20461;-86
2021/12/25 15:56:35;;;;;;;;;;;;;;;;;;5117796;27;20055;-88
2021/12/25 15:59:02;;;;;;;;;;;;;;;;;;5114885;28;19944;-86
2021/12/25 16:01:29;;;;;;;;;;;;;;;;;;5114769;28;20037;-88
2021/12/25 16:03:56;;;;;;;;;;;;;;;;;;5114804;28;20028;-88
2021/12/25 16:06:23;;;;;;;;;;;;;;;;;;5115186;28;20057;-87
2021/12/25 16:08:50;;;;;;;;;;;;;;;;;;5111207;28;20028;-86
2021/12/25 16:11:17;;;;;;;;;;;;;;;;;;5114765;28;20053;-86
2021/12/25 16:13:44;;;;;;;;;;;;;;;;;;5114179;28;20060;-84
2021/12/25 16:16:11;;;;;;;;;;;;;;;;;;5114021;28;20000;-85
2021/12/25 16:18:40;;;;;;;;;;;;;;;;;;5114555;28;20006;-85
2021/12/25 16:21:07;;;;;;;;;;;;;;;;;;5114576;28;20392;-86
2021/12/25 16:23:34;;;;;;;;;;;;;;;;;;5114428;28;19947;-83
2021/12/25 16:26:01;;;;;;;;;;;;;;;;;;5114479;28;20495;-84
2021/12/25 16:28:30;;;;;;;;;;;;;;;;;;5114538;28;19995;-85
2021/12/25 16:30:57;;;;;;;;;;;;;;;;;;5114725;28;20019;-84
2021/12/25 16:33:24;;;;;;;;;;;;;;;;;;5114265;28;20026;-84
2021/12/25 16:35:51;;;;;;;;;;;;;;;;;;5114571;28;20059;-84
2021/12/25 16:38:18;;;;;;;;;;;;;;;;;;5114544;28;20045;-83
2021/12/25 16:40:45;;;;;;;;;;;;;;;;;;5114101;28;20051;-84
2021/12/25 16:43:12;;;;;;;;;;;;;;;;;;5114380;28;20024;-84
2021/12/25 16:45:39;;;;;;;;;;;;;;;;;;5114498;28;20007;-85
2021/12/25 16:48:06;;;;;;;;;;;;;;;;;;5114159;28;20052;-83
2021/12/25 16:50:33;;;;;;;;;;;;;;;;;;5114444;28;20016;-84
2021/12/25 16:53:00;;;;;;;;;;;;;;;;;;5114390;28;20003;-87
2021/12/25 16:55:29;;;;;;;;;;;;;;;;;;5115384;28;20408;-83
2021/12/25 16:57:56;;;;;;;;;;;;;;;;;;5114038;28;19959;-83
2021/12/25 17:00:25;;;;;;;;;;;;;;;;;;5113941;28;20009;-84
2021/12/25 17:02:52;;;;;;;;;;;;;;;;;;5114459;28;20036;-84
2021/12/25 17:05:19;;;;;;;;;;;;;;;;;;5114066;28;20000;-84
2021/12/25 17:07:46;;;;;;;;;;;;;;;;;;5113994;28;20464;-84
2021/12/25 17:10:13;;;;;;;;;;;;;;;;;;5113804;28;20004;-84
2021/12/25 17:12:42;;;;;;;;;;;;;;;;;;5113877;28;19973;-84
2021/12/25 17:15:09;;;;;;;;;;;;;;;;;;5113935;28;20060;-84
2021/12/25 17:17:36;;;;;;;;;;;;;;;;;;5113946;28;20045;-84
2021/12/25 17:20:03;;;;;;;;;;;;;;;;;;5116772;28;20391;-82
2021/12/25 17:22:30;;;;;;;;;;;;;;;;;;5120888;27;20042;-84
2021/12/25 17:24:57;;;;;;;;;;;;;;;;;;5120663;27;20386;-83
2021/12/25 17:27:24;;;;;;;;;;;;;;;;;;5121042;27;20039;-84
2021/12/25 17:29:52;;;;;;;;;;;;;;;;;;5120753;27;20039;-84
2021/12/25 17:32:19;;;;;;;;;;;;;;;;;;5120727;27;19995;-83
2021/12/25 17:34:46;;;;;;;;;;;;;;;;;;5120423;27;20035;-84
2021/12/25 17:37:13;;;;;;;;;;;;;;;;;;5120485;27;20040;-84
2021/12/25 17:39:40;;;;;;;;;;;;;;;;;;5120510;27;20465;-84